Vue régionale

METAR et TAF

Lundi 19 août 2019 à 11h55

Visibilités horizontales observées à différents aéroports. Les observations (METAR) et prévisions aéronautiques (TAF) complètes sont disponibles en cliquant sur l’icône correspondante.

  • Luxemburg (ELLX)

    Taf: TAF AMD ELLX 190500Z 1906/2012 22004KT 0500 FG SCT001 TEMPO 1906/1908 2500 BR SCT005 BECMG 1907/1909 25010KT CAVOK=

    Metar: METAR ELLX 190920Z 24007KT 200V280 9999 FEW040 19/10 Q1018 NOSIG=

  • Spangdahlem (ETAD)

    Taf: TAF AMD ETAD 190600Z 1904/2010 22006KT 0200 FG BKN015 BKN050 QNH3001INS TEMPO 1904/1907 3200 BR BECMG 1907/1908 23008KT 9999 NSW SCT015 SCT035 QNH3005INS BECMG 1910/1911 23010G15KT 9999 SCT035 QNH3005INS BECMG 1919/1920 VRB04KT 9999 SCT030 QNH3017INS BECMG 2006/2007 27003KT 9999 FEW010 SCT040 QNH3020INS TX22/1913Z TN11/2004Z=

    Metar: nil

  • Metz/Nancy (LFJL)

    Taf: TAF AMD LFJL 190746Z 1907/2006 24005KT 9999 SCT020 BKN050 TEMPO 1907/1909 BKN008=

    Metar: nil

  • Saarbrücken/Intl (EDDR)

    Taf: TAF EDDR 190500Z 1906/2006 VRB03KT CAVOK PROB30 TEMPO 1906/1908 BKN004 BECMG 1906/1908 27007KT BECMG 1917/1919 VRB03KT=

    Metar: nil

  • Hahn (EDFH)

    Taf: TAF EDFH 190500Z 1906/2006 26008KT 9999 FEW030 PROB30 TEMPO 1906/1908 BKN005=

    Metar: nil

  • Ramstein (ETAR)

    Taf: TAF ETAR 190206Z 1902/2008 VRB06KT 9999 BKN050 QNH2997INS BECMG 1909/1910 26009KT 9999 SCT065 QNH3006INS TEMPO 1911/1917 27010G15KT BECMG 1920/1921 VRB06KT 9999 SCT050 BKN060 QNH3013INS TX24/1915Z TN12/2002Z=

    Metar: nil

  • Nancy/Ochey (LFSO)

    Taf: TAF LFSO 190800Z 1909/2009 24007KT 9999 BKN010 BECMG 1909/1910 BKN020=

    Metar: nil

  • Liège Bierset (EBLG)

    Taf: TAF EBLG 190500Z 1906/2012 23011KT 9999 FEW030 PROB30 TEMPO 1912/1918 SHRA=

    Metar: nil

  • Saint-Dizier (LFSI)

    Taf: TAF LFSI 190800Z 1909/2009 27005KT 9999 SCT030=

    Metar: nil

  • Maastricht/Zuid Limburg (EHBK)

    Taf: TAF EHBK 190447Z 1906/2012 21009KT CAVOK BECMG 1908/1910 24012G22KT PROB30 TEMPO 1913/1920 7000 -SHRA SCT025TCU BECMG 1916/1919 22007KT=

    Metar: nil

  • Köln/Köln-Bonn (EDDK)

    Taf: TAF EDDK 190500Z 1906/2012 12004KT CAVOK BECMG 1906/1909 25010KT BECMG 1916/1919 27005KT BECMG 1919/1922 15003KT BECMG 2008/2011 27005KT=

    Metar: METAR EDDK 190920Z 24007KT 200V280 9999 FEW033 19/12 Q1016 NOSIG=

  • Charleroi (EBCI)

    Taf: TAF EBCI 190500Z 1906/2012 23011KT 9999 FEW030 PROB30 TEMPO 1911/1917 SHRA=

    Metar: nil

  • Wiesbaden (ETOU)

    Taf: TAF ETOU 190334Z 1903/2009 VRB06KT 9999 BKN050 QNH2996INS BECMG 1911/1912 26009KT 9999 FEW060 QNH3005INS BECMG 1922/1923 VRB06KT 9999 BKN060 QNH3012INS TX25/1913Z TN15/2003Z=

    Metar: nil

  • Karlsruhe/Baden-Baden (EDSB)

    Taf: TAF EDSB 190500Z 1906/2006 28005KT 9999 SCT040 BECMG 1917/1919 VRB03KT=

    Metar: nil

  • Chalons/Vatry (LFOK)

    Taf: TAF LFOK 190500Z 1906/2006 28007KT 9999 SCT040 TEMPO 1906/1907 4000 BR PROB30 TEMPO 2004/2006 3000 BR=

    Metar: nil

  • Brüssel (EBBR)

    Taf: TAF EBBR 190500Z 1906/2012 23011KT 9999 FEW030 PROB30 TEMPO 1910/1916 SHRA=

    Metar: METAR EBBR 190920Z 25014KT 9999 FEW027 18/11 Q1016 NOSIG=

  • Düsseldorf (EDDL)

    Taf: TAF EDDL 190500Z 1906/2012 24014KT CAVOK TEMPO 1911/1915 24015G25KT BECMG 1916/1919 22007KT TEMPO 1919/2006 16004KT=

    Metar: nil

  • Luxeuil (LFSX)

    Taf: TAF LFSX 190800Z NIL=

    Metar: nil

  • Eindhoven (EHEH)

    Taf: TAF EHEH 190512Z 1906/2012 22008KT CAVOK BECMG 1906/1909 23012G22KT PROB30 TEMPO 1906/1912 FEW020CB BKN025 TEMPO 1912/1918 FEW028CB SCT030 BECMG 1916/1918 21005KT=

    Metar: nil

  • Niederrhein (EDLV)

    Taf: TAF EDLV 190500Z 1906/2006 21008KT CAVOK BECMG 1906/1909 23013KT TEMPO 1911/1915 24015G25KT BECMG 1917/1920 20004KT=

    Metar: nil

  • Dortmund/Wickede (EDLW)

    Taf: TAF EDLW 190500Z 1906/2006 21009KT CAVOK BECMG 1906/1909 24014KT PROB40 TEMPO 1911/1915 25015G25KT BECMG 1916/1919 21007KT=

    Metar: nil

  • Stuttgart/Echterdingen (EDDS)

    Taf: TAF EDDS 190500Z 1906/2006 24004KT 9999 SCT030 PROB30 TEMPO 1906/1908 33005KT SHRA BKN025CB BECMG 1908/1911 30005KT BECMG 1916/1918 VRB03KT=

    Metar: METAR EDDS 190920Z 34004KT 290V030 9999 SHRA FEW010 SCT017 BKN022CB 19/16 Q1018 BECMG NSW=

  • Basel-Mühlhausen (LFSB)

    Taf: TAF AMD LFSB 190715Z 1907/2006 22006KT 9999 FEW025 BKN040 TEMPO 1907/1910 -RA PROB30 1907/1910 2000 BKN010 PROB40 TEMPO 1912/1918 4000 SHRA SCT040TCU=

    Metar: METAR LFSB 190930Z 24005KT 9999 FEW030 BKN056 19/16 Q1018 NOSIG=

  • Lille (LFQQ)

    Taf: TAF LFQQ 190500Z 1906/2012 21010KT 9999 SCT025 TEMPO 1910/1917 24015G25KT SHRA BKN030TCU BECMG 2007/2009 27008KT=

    Metar: nil

  • Paris/Charles de Gaulle (LFPG)

    Taf: TAF LFPG 190500Z 1906/2012 24008KT CAVOK TX22/1915Z TN13/2005Z TEMPO 1921/2007 VRB03KT=

    Metar: nil

  • Paderborn/Lippstadt (EDLP)

    Taf: TAF EDLP 190500Z 1906/2006 23007KT CAVOK BECMG 1906/1909 25012KT TEMPO 1909/1915 25015G25KT BECMG 1917/1919 20005KT=

    Metar: nil

  • Paris/Le Bourget (LFPB)

    Taf: TAF LFPB 190500Z 1906/2006 24008KT CAVOK TEMPO 1921/2006 VRB03KT=

    Metar: METAR LFPB 190930Z AUTO 24010KT 200V280 9999 FEW036 19/11 Q1018 NOSIG=

  • Rotterdam (EHRD)

    Taf: TAF EHRD 190444Z 1906/2012 21012KT 9999 SCT025 PROB30 TEMPO 1906/1911 7000 -SHRA SCT020TCU BECMG 1907/1910 24015G25KT PROB30 TEMPO 1911/1917 25020G30KT 6000 SHRA SCT018CB BKN030 BECMG 1916/1919 21008KT BECMG 2008/2011 25013KT=

    Metar: nil

  • Zürich/Kloten (LSZH)

    Taf: TAF LSZH 190825Z 1909/2015 VRB03KT 9999 FEW020 SCT070 BKN150 TX22/1914Z TN16/2004Z TX19/2014Z PROB30 TEMPO 1910/1913 30007KT PROB40 TEMPO 1910/1924 SHRA TEMPO 2003/2015 4500 SHRA SCT050TCU=

    Metar: METAR LSZH 190920Z 23005KT 9999 FEW016 SCT030 BKN140 20/16 Q1019 NOSIG=

  • Oostende/Intl (EBOS)

    Taf: TAF EBOS 190500Z 1906/2012 22012KT 9999 SCT025 PROB30 TEMPO 1906/1915 4500 SHRA PROB40 TEMPO 1909/1918 24015G25KT=

    Metar: nil

  • Paris/Orly (LFPO)

    Taf: TAF LFPO 190500Z 1906/2012 24004KT CAVOK=

    Metar: nil

  • Beauvais (LFOB)

    Taf: TAF LFOB 190500Z 1906/2006 22008KT 9999 SCT025 TEMPO 1915/1918 SHRA BKN030TCU PROB30 TEMPO 2003/2006 4000 BR=

    Metar: nil

  • Münster/Intl (EDDG)

    Taf: TAF EDDG 190500Z 1906/2006 22008KT CAVOK BECMG 1907/1910 23013KT TEMPO 1910/1915 23015G25KT BECMG 1917/1919 19004KT=

    Metar: METAR EDDG 190920Z 21012KT 9999 FEW022 SCT027 19/12 Q1015 NOSIG=

  • Illesheim (ETIK)

    Taf: TAF AMD ETIK 190532Z 1905/2004 21009KT 6000 -SHRA SCT020 BKN060 QNH2995INS BECMG 1909/1910 VRB06KT 9999 NSW BKN050 QNH3007INS BECMG 2002/2003 24009KT 8000 -SHRA BKN040 OVC060 QNH3013INS TX23/1914Z TN16/1906Z=

    Metar: nil

  • Duebendorf (LSMD)

    Taf: TAF LSMD 190925Z 1910/2016 VRB03KT 9999 FEW015 SCT040 BKN060 TEMPO 1910/1924 SHRA SCT040TCU PROB30 TEMPO 1912/1918 4000 TSRA FEW040CB BECMG 2000/2003 RA TEMPO 2003/2016 BKN010 TEMPO 2009/2016 NSW=

    Metar: nil

  • Villacoublay (LFPV)

    Taf: TAF LFPV 190800Z 1909/2009 25008KT CAVOK=

    Metar: nil

  • Payerne (LSMP)

    Taf: TAF LSMP 190925Z 1910/2016 27005KT 9999 FEW030 BKN070 PROB40 TEMPO 1912/1920 SHRA SCT050TCU TEMPO 1923/2003 4500 SHRA SCT050TCU BECMG 2003/2006 RA TEMPO 2005/2015 2900 +RA OVC014=

    Metar: nil

  • Amsterdam/Schipol (EHAM)

    Taf: TAF EHAM 190444Z 1906/2012 21012KT 9999 SCT025 PROB30 TEMPO 1906/1911 7000 -SHRA SCT020TCU BECMG 1907/1910 24015G25KT PROB30 TEMPO 1911/1917 25020G30KT 6000 SHRA SCT018CB BKN030 BECMG 1916/1919 21008KT BECMG 2008/2011 25013KT=

    Metar: METAR EHAM 190925Z 24019KT 200V260 8000 VCSH FEW020CB SCT026 18/11 Q1013 NOSIG=

  • Emmen (LSME)

    Taf: TAF LSME 190925Z 1910/2016 VRB03KT 9999 FEW015 SCT040 BKN060 TEMPO 1910/1924 SHRA SCT040TCU PROB30 TEMPO 1912/1918 4000 TSRA FEW040CB BECMG 2000/2003 RA TEMPO 2003/2016 BKN010 TEMPO 2009/2016 NSW=

    Metar: nil

  • Friedrichshafen (EDNY)

    Taf: TAF EDNY 190500Z 1906/2006 16005KT 9999 FEW015 BKN040 PROB30 TEMPO 1906/1908 4000 RA PROB30 TEMPO 1907/1909 BKN008 BECMG 1907/1909 24006KT PROB30 TEMPO 1910/1913 SHRA SCT012 BKN030TCU BECMG 1916/1918 VRB03KT PROB30 TEMPO 1920/2005 SHRA BKN020TCU TEMPO 2005/2006 4000 RA BKN012=

    Metar: nil

  • Alpnach (LSMA)

    Taf: TAF LSMA 190925Z 1910/2016 VRB03KT 9999 FEW010 SCT030 BKN050 TEMPO 1910/1924 SHRA SCT040TCU PROB30 TEMPO 1912/1918 4000 TSRA FEW040CB BECMG 2000/2003 RA TEMPO 2003/2016 BKN010 TEMPO 2012/2016 NSW=

    Metar: nil

  • Meiringen (LSMM)

    Taf: TAF LSMM 190925Z 1910/2016 VRB03KT 9999 FEW010 SCT020 BKN050 TEMPO 1910/1924 SHRA SCT030TCU PROB30 TEMPO 1912/1918 27012KT 4000 TSRA FEW030CB BECMG 2000/2003 RA TEMPO 2003/2016 BKN010 PROB40 TEMPO 2003/2012 4000 BKN005=

    Metar: nil

  • Nürnberg (EDDN)

    Taf: TAF EDDN 190500Z 1906/2006 19005KT 9999 FEW010 BKN040 PROB30 TEMPO 1906/1909 BKN010 BECMG 1907/1910 27006KT BECMG 1916/1918 VRB03KT=

    Metar: METAR EDDN 190920Z 25005KT 210V320 9999 SCT015 20/16 Q1018 NOSIG=

  • Rouen (LFOP)

    Taf: TAF AMD LFOP 190500Z 1906/2006 CNL=

    Metar: nil

  • Evreux (LFOE)

    Taf: TAF LFOE 190800Z 1909/2009 22005KT CAVOK=

    Metar: nil

  • Erfurt/Bindersleben (EDDE)

    Taf: TAF EDDE 190500Z 1906/2006 25007KT 9999 SCT040 BECMG 1908/1910 27012KT BECMG 1916/1918 27007KT BECMG 1919/1921 21005KT=

    Metar: nil